首页
METAR-TAF:

METAR-TAF

机场 :

班加羅爾, 印度

纬度: 12-57-00N, 经度: 077-40-06E, 海拔: 888米

当前天气观测

该预报发布于24分钟前的18:30 UTC
风速8节,风向西
温度 25°C
湿度 83%
气压 1014 hPa
能見度: 6000
散云层高于1200英尺
多云层高于8000英尺
小毛毛雨,

METAR: VOBG 181830Z 26008KT 6000 -DZ SCT012 BKN080 25/22 Q1014 NOSIG

时间: 00:24 (18:54 UTC)

预报

该预报发布于1小时和54分钟前的17:00 UTC
预报有效从18日的 18点(UTC)到 19日的 03点(UTC)
风速10节,风向西
能見度: 6000
散云层高于1200英尺
散云层高于8000英尺
短暂存在
从 18日的 22点(UTC)到 19日的 03点(UTC)
多云层高于800英尺
散云层高于1200英尺
多云层高于8000英尺

TAF: VOBG 181700Z 1818/1903 27010KT 6000 SCT012 SCT080 TEMPO 1822/1903 BKN008 SCT012 BKN080

超过4000个机场的气象观测和天气预报(METAR&TAF报告)。

可查询的气象台以黄色和红色小点在地图上表示。

将鼠标移到小点上方,可查看气象台名称。

然后点击查看天气观测和预报。

如需切换地图:点击带黑十字的绿色按钮放大地图;点击带横线的绿色按钮缩小地图;或者点击绿色箭头查看邻近地区的地图。


METAR-TAF: